Grass Range, Montana
Current Conditions -  °F | °C
As of 11:55 AM on Wednesday 26 Nov 2014 (Local Time) from KMVH Reporting Station
Haze Haze  
Wind Chill: 17°   Ceiling: 2500
Heat Index: 27°   Visibility: 3mi
Dew Point: 25°   Wind: 9mph
Humidity: 93%   Direction: 120°ESE
Pressure: 30.15"   Gusts: NA
Location:  47.03°N, 108.8°W
Report Text: KMVH 261855Z AUTO 12008KT 3SM BR FEW003 SCT017 BKN025 M03/M04 A3015 RMK A01
Loading
Personal Weather Stations






























Interactive Weather Map New forecast layout! Learn more

10-Day Weather Forecast

Advertisements
Track Severe Weather on mobile